Time;durP1;ratioP1;P1;durP2;ratioP2;P2;SDS_P1;SDS_P2;PMS_P1;PMS_P2;Temp;Humidity;BMP_temperature;BMP_pressure;BME280_temperature;BME280_humidity;BME280_pressure;Samples;Min_cycle;Max_cycle;Signal;HPM_P1;HPM_P2
2022/10/06 00:02:26;;;;;;;1.80;1.63;;;;;;;;;;5111903;28;20811;-80
2022/10/06 00:04:53;;;;;;;2.83;1.60;;;;;;;;;;5112398;28;20631;-79
2022/10/06 00:07:20;;;;;;;2.17;1.97;;;;;;;;;;5113012;28;20260;-79
2022/10/06 00:09:46;;;;;;;1.60;1.50;;;;;;;;;;5112218;28;20204;-81
2022/10/06 00:12:13;;;;;;;1.50;1.40;;;;;;;;;;5112259;28;20683;-79
2022/10/06 00:14:40;;;;;;;2.27;1.70;;;;;;;;;;5112118;28;20203;-79
2022/10/06 00:17:08;;;;;;;3.77;1.37;;;;;;;;;;5111795;28;20199;-79
2022/10/06 00:19:35;;;;;;;2.20;1.40;;;;;;;;;;5111892;28;20717;-79
2022/10/06 00:22:02;;;;;;;1.87;1.77;;;;;;;;;;5112042;28;20199;-79
2022/10/06 00:24:28;;;;;;;1.40;1.30;;;;;;;;;;5112304;28;20227;-79
2022/10/06 00:26:55;;;;;;;1.47;1.40;;;;;;;;;;5112488;28;20210;-79
2022/10/06 00:29:22;;;;;;;1.70;1.60;;;;;;;;;;5112009;28;20203;-79
2022/10/06 00:31:49;;;;;;;1.67;1.57;;;;;;;;;;5112319;28;20200;-79
2022/10/06 00:34:17;;;;;;;1.50;1.40;;;;;;;;;;5112012;28;20196;-79
2022/10/06 00:36:44;;;;;;;2.97;1.73;;;;;;;;;;5112045;28;20207;-79
2022/10/06 00:39:10;;;;;;;1.40;1.40;;;;;;;;;;5111560;28;20283;-79
2022/10/06 00:41:38;;;;;;;1.83;1.37;;;;;;;;;;5111528;28;20204;-79
2022/10/06 00:44:05;;;;;;;1.77;1.67;;;;;;;;;;5111314;28;20211;-79
2022/10/06 00:46:35;;;;;;;1.30;1.30;;;;;;;;;;5111587;28;20199;-79
2022/10/06 00:49:08;;;;;;;2.37;1.47;;;;;;;;;;5111483;28;20200;-79
2022/10/06 00:51:39;;;;;;;1.60;1.50;;;;;;;;;;5111332;28;20191;-79
2022/10/06 00:54:06;;;;;;;1.80;1.70;;;;;;;;;;5111381;28;20746;-79
2022/10/06 00:56:33;;;;;;;1.70;1.60;;;;;;;;;;5111471;28;20203;-79
2022/10/06 00:59:00;;;;;;;2.40;1.60;;;;;;;;;;5111381;28;20615;-79
2022/10/06 01:01:27;;;;;;;1.90;1.60;;;;;;;;;;5111147;28;20203;-79
2022/10/06 01:03:57;;;;;;;1.77;1.67;;;;;;;;;;5111119;28;20700;-79
2022/10/06 01:06:23;;;;;;;1.57;1.40;;;;;;;;;;5111908;28;20199;-79
2022/10/06 01:08:52;;;;;;;1.63;1.50;;;;;;;;;;5110731;28;20281;-79
2022/10/06 01:11:19;;;;;;;1.40;1.30;;;;;;;;;;5111057;28;20203;-79
2022/10/06 01:13:46;;;;;;;2.83;1.43;;;;;;;;;;5110808;28;20209;-79
2022/10/06 01:16:18;;;;;;;1.70;1.60;;;;;;;;;;5111338;28;20313;-79
2022/10/06 01:18:47;;;;;;;1.80;1.70;;;;;;;;;;5110968;28;20292;-79
2022/10/06 01:21:18;;;;;;;1.97;1.77;;;;;;;;;;5110976;28;20196;-79
2022/10/06 01:23:46;;;;;;;3.23;1.60;;;;;;;;;;5110533;28;20208;-79
2022/10/06 01:26:14;;;;;;;2.10;1.53;;;;;;;;;;5111194;28;20269;-79
2022/10/06 01:28:56;;;;;;;1.53;1.43;;;;;;;;;;5071477;27;21196;-79
2022/10/06 01:31:23;;;;;;;1.63;1.50;;;;;;;;;;5067663;28;20205;-80
2022/10/06 01:33:53;;;;;;;1.50;1.40;;;;;;;;;;5067813;28;20204;-80
2022/10/06 01:36:20;;;;;;;1.80;1.70;;;;;;;;;;5067432;28;20200;-80
2022/10/06 01:38:47;;;;;;;2.40;1.77;;;;;;;;;;5067383;28;20629;-79
2022/10/06 01:41:14;;;;;;;4.33;1.80;;;;;;;;;;5067817;28;20193;-79
2022/10/06 01:43:41;;;;;;;1.73;1.30;;;;;;;;;;5067381;28;20585;-79
2022/10/06 01:46:09;;;;;;;2.07;1.67;;;;;;;;;;5067301;28;20197;-80
2022/10/06 01:48:36;;;;;;;1.70;1.60;;;;;;;;;;5067819;28;20221;-79
2022/10/06 01:51:03;;;;;;;1.80;1.70;;;;;;;;;;5066810;28;20295;-79
2022/10/06 01:53:30;;;;;;;1.70;1.60;;;;;;;;;;5067148;28;20198;-80
2022/10/06 01:55:58;;;;;;;3.53;1.77;;;;;;;;;;5067116;28;20700;-79
2022/10/06 01:58:25;;;;;;;1.50;1.40;;;;;;;;;;5067266;28;20198;-79
2022/10/06 02:00:52;;;;;;;3.27;1.87;;;;;;;;;;5067087;28;20598;-79
2022/10/06 02:03:20;;;;;;;2.53;2.33;;;;;;;;;;5066864;28;20205;-79
2022/10/06 02:05:46;;;;;;;4.07;3.60;;;;;;;;;;5066810;28;20205;-79
2022/10/06 02:08:13;;;;;;;7.03;6.33;;;;;;;;;;5067340;28;20229;-79
2022/10/06 02:10:40;;;;;;;5.80;5.30;;;;;;;;;;5052965;28;20599;-79
2022/10/06 02:13:07;;;;;;;2.47;2.27;;;;;;;;;;5067181;28;20208;-79
2022/10/06 02:15:34;;;;;;;2.60;2.40;;;;;;;;;;5066961;28;20225;-80
2022/10/06 02:18:01;;;;;;;2.50;2.30;;;;;;;;;;5066467;28;20224;-79
2022/10/06 02:20:29;;;;;;;2.10;2.00;;;;;;;;;;5066767;28;20205;-79
2022/10/06 02:22:55;;;;;;;2.13;2.00;;;;;;;;;;5067205;28;20212;-79
2022/10/06 02:25:22;;;;;;;1.70;1.60;;;;;;;;;;5066528;28;20206;-79
2022/10/06 02:27:49;;;;;;;2.77;2.10;;;;;;;;;;5066321;28;20237;-79
2022/10/06 02:30:16;;;;;;;1.50;1.40;;;;;;;;;;5066285;28;20212;-79
2022/10/06 02:32:43;;;;;;;1.93;1.73;;;;;;;;;;5066398;28;20201;-79
2022/10/06 02:35:11;;;;;;;1.77;1.63;;;;;;;;;;5066290;28;20205;-79
2022/10/06 02:37:40;;;;;;;1.70;1.60;;;;;;;;;;5066230;28;20647;-79
2022/10/06 02:40:08;;;;;;;2.50;1.73;;;;;;;;;;5054193;28;20205;-79
2022/10/06 02:42:36;;;;;;;1.80;1.70;;;;;;;;;;5053151;28;20206;-80
2022/10/06 02:45:04;;;;;;;2.63;2.00;;;;;;;;;;5052975;28;20228;-80
2022/10/06 02:47:32;;;;;;;2.57;2.33;;;;;;;;;;5052675;28;20233;-79
2022/10/06 02:50:00;;;;;;;5.03;2.50;;;;;;;;;;5052869;28;20206;-79
2022/10/06 02:52:32;;;;;;;2.10;2.00;;;;;;;;;;5053194;28;20201;-79
2022/10/06 02:55:00;;;;;;;2.37;2.27;;;;;;;;;;5052445;28;20198;-79
2022/10/06 02:57:27;;;;;;;2.60;2.00;;;;;;;;;;5053158;28;20211;-79
2022/10/06 02:59:54;;;;;;;1.43;1.37;;;;;;;;;;5052496;28;20351;-78
2022/10/06 03:02:21;;;;;;;2.80;1.80;;;;;;;;;;5052743;28;20201;-79
2022/10/06 03:04:47;;;;;;;1.57;1.47;;;;;;;;;;5052870;28;20205;-79
2022/10/06 03:07:14;;;;;;;2.50;1.70;;;;;;;;;;5052646;28;20202;-79
2022/10/06 03:09:41;;;;;;;1.70;1.60;;;;;;;;;;5052533;28;20209;-79
2022/10/06 03:15:31;;;;;;;1.63;1.53;;;;;;;;;;5052146;28;20291;-79
2022/10/06 03:17:57;;;;;;;4.87;1.83;;;;;;;;;;5052637;28;20279;-79
2022/10/06 03:20:24;;;;;;;1.40;1.40;;;;;;;;;;5052536;28;20557;-78
2022/10/06 03:22:53;;;;;;;1.30;1.30;;;;;;;;;;5052237;28;20205;-79
2022/10/06 03:25:20;;;;;;;1.83;1.73;;;;;;;;;;5051905;28;20216;-79
2022/10/06 03:27:46;;;;;;;1.50;1.40;;;;;;;;;;5052291;28;20246;-79
2022/10/06 03:30:13;;;;;;;1.77;1.67;;;;;;;;;;5052116;28;20202;-79
2022/10/06 03:32:41;;;;;;;1.67;1.57;;;;;;;;;;5052274;28;20197;-79
2022/10/06 03:35:09;;;;;;;1.63;1.53;;;;;;;;;;5051539;28;20684;-79
2022/10/06 03:37:36;;;;;;;1.70;1.60;;;;;;;;;;5051850;28;20198;-79
2022/10/06 03:40:02;;;;;;;5.27;1.60;;;;;;;;;;5051939;28;20214;-79
2022/10/06 03:42:31;;;;;;;3.00;1.93;;;;;;;;;;5052366;28;20202;-79
2022/10/06 03:44:57;;;;;;;2.40;1.60;;;;;;;;;;5051454;28;20213;-79
2022/10/06 03:47:24;;;;;;;1.80;1.70;;;;;;;;;;5044505;28;20198;-79
2022/10/06 03:49:52;;;;;;;3.73;2.80;;;;;;;;;;5050692;28;20589;-80
2022/10/06 03:52:19;;;;;;;5.57;3.30;;;;;;;;;;5050714;28;20228;-79
2022/10/06 03:54:46;;;;;;;5.57;3.33;;;;;;;;;;5051124;28;20215;-79
2022/10/06 03:57:12;;;;;;;10.70;2.83;;;;;;;;;;5051172;28;20198;-79
2022/10/06 03:59:39;;;;;;;8.43;2.67;;;;;;;;;;5051157;28;20202;-79
2022/10/06 04:02:06;;;;;;;5.47;2.60;;;;;;;;;;5051399;28;20584;-79
2022/10/06 04:04:32;;;;;;;3.17;2.97;;;;;;;;;;5051139;28;20198;-79
2022/10/06 04:07:01;;;;;;;3.80;2.60;;;;;;;;;;5051402;28;20206;-79
2022/10/06 04:09:27;;;;;;;3.50;2.07;;;;;;;;;;5051201;28;20612;-79
2022/10/06 04:11:54;;;;;;;1.73;1.63;;;;;;;;;;5050829;28;20209;-79
2022/10/06 04:14:21;;;;;;;17.93;2.53;;;;;;;;;;5050618;28;20205;-79
2022/10/06 04:16:48;;;;;;;5.43;2.17;;;;;;;;;;5047427;28;20263;-79
2022/10/06 04:19:16;;;;;;;2.20;2.00;;;;;;;;;;5050251;28;20194;-78
2022/10/06 04:21:45;;;;;;;3.50;2.13;;;;;;;;;;5041156;28;20202;-78
2022/10/06 04:24:15;;;;;;;10.80;2.50;;;;;;;;;;5040737;28;20241;-77
2022/10/06 04:26:45;;;;;;;1.60;1.50;;;;;;;;;;5051003;28;20205;-78
2022/10/06 04:29:12;;;;;;;1.80;1.70;;;;;;;;;;5050591;28;20222;-78
2022/10/06 04:31:41;;;;;;;13.17;8.93;;;;;;;;;;5050741;28;20654;-78
2022/10/06 04:34:10;;;;;;;33.87;19.57;;;;;;;;;;5051165;28;20230;-78
2022/10/06 04:36:39;;;;;;;9.70;8.37;;;;;;;;;;5050841;28;20206;-78
2022/10/06 04:39:09;;;;;;;5.07;4.57;;;;;;;;;;5050973;28;20227;-78
2022/10/06 04:41:39;;;;;;;4.10;2.97;;;;;;;;;;5051154;28;20267;-78
2022/10/06 04:44:07;;;;;;;2.23;2.03;;;;;;;;;;5050469;28;20758;-77
2022/10/06 04:46:34;;;;;;;2.03;1.83;;;;;;;;;;5050768;28;20240;-77
2022/10/06 04:49:02;;;;;;;1.70;1.60;;;;;;;;;;5050952;28;20221;-78
2022/10/06 04:51:29;;;;;;;1.67;1.57;;;;;;;;;;5050911;28;20202;-78
2022/10/06 04:53:56;;;;;;;2.47;1.83;;;;;;;;;;5051069;28;20263;-78
2022/10/06 04:56:24;;;;;;;4.00;1.80;;;;;;;;;;5050149;28;20202;-78
2022/10/06 04:58:54;;;;;;;1.53;1.43;;;;;;;;;;5050863;28;20221;-78
2022/10/06 05:01:23;;;;;;;1.60;1.50;;;;;;;;;;5050451;28;20214;-77
2022/10/06 05:03:51;;;;;;;2.30;2.10;;;;;;;;;;5050418;28;20206;-78
2022/10/06 05:06:19;;;;;;;1.60;1.50;;;;;;;;;;5050572;28;20602;-77
2022/10/06 05:08:47;;;;;;;1.93;1.80;;;;;;;;;;5050296;28;20275;-77
2022/10/06 05:11:14;;;;;;;1.70;1.57;;;;;;;;;;5050161;28;20208;-77
2022/10/06 05:13:42;;;;;;;2.13;1.90;;;;;;;;;;5050185;28;20197;-78
2022/10/06 05:16:13;;;;;;;1.80;1.70;;;;;;;;;;5050275;28;20261;-78
2022/10/06 05:18:40;;;;;;;3.50;1.27;;;;;;;;;;5050402;28;20742;-77
2022/10/06 05:21:08;;;;;;;2.17;1.67;;;;;;;;;;5050300;28;20236;-77
2022/10/06 05:23:37;;;;;;;3.10;1.70;;;;;;;;;;5049765;28;20229;-78
2022/10/06 05:26:05;;;;;;;1.60;1.50;;;;;;;;;;5050207;28;20232;-78
2022/10/06 05:28:32;;;;;;;1.73;1.63;;;;;;;;;;5050232;28;20774;-77
2022/10/06 05:31:00;;;;;;;1.43;1.33;;;;;;;;;;5050143;28;20259;-77
2022/10/06 05:33:29;;;;;;;1.10;1.10;;;;;;;;;;5050300;28;20276;-77
2022/10/06 05:35:58;;;;;;;1.73;1.53;;;;;;;;;;5049913;28;20201;-77
2022/10/06 05:38:26;;;;;;;1.43;1.33;;;;;;;;;;5050162;28;20206;-77
2022/10/06 05:41:00;;;;;;;2.60;1.40;;;;;;;;;;5049992;28;20271;-77
2022/10/06 05:43:27;;;;;;;1.63;1.53;;;;;;;;;;5050270;28;20205;-77
2022/10/06 05:45:54;;;;;;;1.87;1.20;;;;;;;;;;5049763;28;20207;-77
2022/10/06 05:48:21;;;;;;;1.20;1.20;;;;;;;;;;5050303;28;20217;-77
2022/10/06 05:50:57;;;;;;;1.40;1.30;;;;;;;;;;5049792;28;20237;-77
2022/10/06 05:53:24;;;;;;;1.93;1.83;;;;;;;;;;5050264;28;20190;-77
2022/10/06 05:55:51;;;;;;;2.10;1.37;;;;;;;;;;5049767;28;20202;-77
2022/10/06 05:58:18;;;;;;;1.37;1.30;;;;;;;;;;5050018;28;20216;-77
2022/10/06 06:00:45;;;;;;;1.20;1.20;;;;;;;;;;5049873;28;20241;-77
2022/10/06 06:03:12;;;;;;;1.57;1.30;;;;;;;;;;5049636;28;20217;-77
2022/10/06 06:05:41;;;;;;;1.70;1.60;;;;;;;;;;5050063;28;20198;-77
2022/10/06 06:08:10;;;;;;;1.40;1.30;;;;;;;;;;5050225;28;20202;-77
2022/10/06 06:10:37;;;;;;;1.43;1.33;;;;;;;;;;5049803;28;20289;-77
2022/10/06 06:13:03;;;;;;;1.53;1.43;;;;;;;;;;5050008;28;20233;-78
2022/10/06 06:18:14;;;;;;;1.40;1.30;;;;;;;;;;5053775;28;20281;-77
2022/10/06 06:20:41;;;;;;;1.33;1.27;;;;;;;;;;5053669;28;20202;-77
2022/10/06 06:23:09;;;;;;;1.37;1.27;;;;;;;;;;5053423;28;20688;-77
2022/10/06 06:25:38;;;;;;;5.33;1.50;;;;;;;;;;5053396;28;20286;-77
2022/10/06 06:28:05;;;;;;;1.73;1.60;;;;;;;;;;5052859;28;20221;-78
2022/10/06 06:30:32;;;;;;;2.27;1.30;;;;;;;;;;5053319;28;20208;-77
2022/10/06 06:32:59;;;;;;;1.20;1.20;;;;;;;;;;5053587;28;20240;-77
2022/10/06 06:35:26;;;;;;;1.67;1.50;;;;;;;;;;5053503;28;20224;-77
2022/10/06 06:37:52;;;;;;;1.27;1.27;;;;;;;;;;5039547;28;20229;-77
2022/10/06 06:40:21;;;;;;;3.57;1.53;;;;;;;;;;5053305;28;20206;-78
2022/10/06 06:42:48;;;;;;;1.57;1.47;;;;;;;;;;5052638;28;20206;-77
2022/10/06 06:45:15;;;;;;;1.40;1.30;;;;;;;;;;5053276;28;20201;-77
2022/10/06 06:47:42;;;;;;;2.83;1.50;;;;;;;;;;5053472;28;20208;-78
2022/10/06 06:50:09;;;;;;;1.70;1.60;;;;;;;;;;5052745;28;20222;-77
2022/10/06 06:52:37;;;;;;;1.70;1.53;;;;;;;;;;5052986;28;20206;-78
2022/10/06 06:55:04;;;;;;;1.30;1.20;;;;;;;;;;5053136;28;20301;-77
2022/10/06 06:57:32;;;;;;;1.43;1.33;;;;;;;;;;5052882;28;20202;-78
2022/10/06 07:00:01;;;;;;;1.40;1.30;;;;;;;;;;5052313;28;20759;-77
2022/10/06 07:02:28;;;;;;;1.57;1.47;;;;;;;;;;5053203;28;20226;-76
2022/10/06 07:04:55;;;;;;;1.30;1.20;;;;;;;;;;5052565;28;20204;-77
2022/10/06 07:07:21;;;;;;;1.47;1.43;;;;;;;;;;5052731;28;20205;-77
2022/10/06 07:09:48;;;;;;;1.50;1.40;;;;;;;;;;5052120;28;20225;-78
2022/10/06 07:12:15;;;;;;;3.00;1.20;;;;;;;;;;5052608;28;20201;-78
2022/10/06 07:25:37;;;;;;;1.23;1.13;;;;;;;;;;5052057;28;20209;-78
2022/10/06 07:28:05;;;;;;;1.10;1.10;;;;;;;;;;5052778;28;20599;-78
2022/10/06 07:30:33;;;;;;;1.40;1.30;;;;;;;;;;5052073;28;20226;-78
2022/10/06 07:33:00;;;;;;;1.87;1.50;;;;;;;;;;5052248;28;20280;-77
2022/10/06 07:35:27;;;;;;;1.57;1.47;;;;;;;;;;5052158;28;20233;-77
2022/10/06 07:37:54;;;;;;;10.93;2.50;;;;;;;;;;5052469;28;20641;-78
2022/10/06 07:40:21;;;;;;;1.50;1.40;;;;;;;;;;5052050;28;20206;-78
2022/10/06 07:42:48;;;;;;;1.47;1.37;;;;;;;;;;5051850;28;20206;-78
2022/10/06 07:48:02;;;;;;;1.47;1.37;;;;;;;;;;5052058;28;20214;-77
2022/10/06 07:50:28;;;;;;;2.13;1.60;;;;;;;;;;5051859;28;20234;-77
2022/10/06 07:52:55;;;;;;;1.20;1.20;;;;;;;;;;5051971;28;20206;-77
2022/10/06 07:55:22;;;;;;;1.33;1.20;;;;;;;;;;5038132;28;20272;-77
2022/10/06 07:57:49;;;;;;;1.10;1.10;;;;;;;;;;5051649;28;20206;-77
2022/10/06 08:00:19;;;;;;;2.57;1.40;;;;;;;;;;5051362;28;20231;-77
2022/10/06 08:02:46;;;;;;;1.47;1.37;;;;;;;;;;5052008;28;20405;-78
2022/10/06 08:05:14;;;;;;;2.43;1.33;;;;;;;;;;5051473;28;20203;-78
2022/10/06 08:07:41;;;;;;;1.50;1.30;;;;;;;;;;5051557;28;20201;-78
2022/10/06 08:10:09;;;;;;;2.20;1.47;;;;;;;;;;5051422;28;20608;-78
2022/10/06 08:12:38;;;;;;;1.60;1.50;;;;;;;;;;5051495;28;20202;-77
2022/10/06 08:15:07;;;;;;;2.73;1.50;;;;;;;;;;5051650;28;20271;-78
2022/10/06 08:17:35;;;;;;;1.20;1.20;;;;;;;;;;5051685;28;20213;-77
2022/10/06 08:20:01;;;;;;;1.53;1.43;;;;;;;;;;5051499;28;20262;-77
2022/10/06 08:22:30;;;;;;;4.10;1.40;;;;;;;;;;5051121;28;20688;-78
2022/10/06 08:24:57;;;;;;;1.37;1.27;;;;;;;;;;5050932;28;20206;-78
2022/10/06 08:27:24;;;;;;;1.70;1.60;;;;;;;;;;5051252;28;20312;-78
2022/10/06 08:29:51;;;;;;;1.50;1.40;;;;;;;;;;5051348;28;20229;-78
2022/10/06 08:32:19;;;;;;;1.60;1.50;;;;;;;;;;5051221;28;20205;-78
2022/10/06 08:34:46;;;;;;;1.40;1.30;;;;;;;;;;5050799;28;20213;-78
2022/10/06 08:37:13;;;;;;;1.63;1.37;;;;;;;;;;5050508;28;20278;-78
2022/10/06 08:39:42;;;;;;;2.10;1.23;;;;;;;;;;5050676;28;20681;-78
2022/10/06 08:42:14;;;;;;;1.40;1.30;;;;;;;;;;5051124;28;20643;-78
2022/10/06 08:44:43;;;;;;;1.57;1.47;;;;;;;;;;5036973;28;20198;-78
2022/10/06 08:47:13;;;;;;;1.80;1.37;;;;;;;;;;5050951;28;20205;-78
2022/10/06 08:49:43;;;;;;;1.43;1.30;;;;;;;;;;5050400;28;20236;-78
2022/10/06 08:52:20;;;;;;;0.97;0.97;;;;;;;;;;5050928;28;20263;-77
2022/10/06 08:54:51;;;;;;;1.97;1.10;;;;;;;;;;5050949;28;20296;-78
2022/10/06 08:57:20;;;;;;;1.37;1.27;;;;;;;;;;5050947;28;20208;-77
2022/10/06 08:59:51;;;;;;;1.50;1.40;;;;;;;;;;5050053;28;20244;-77
2022/10/06 09:02:27;;;;;;;1.10;1.10;;;;;;;;;;5050632;28;20198;-80
2022/10/06 09:04:56;;;;;;;1.60;1.20;;;;;;;;;;5050201;28;20233;-78
2022/10/06 09:07:28;;;;;;;1.07;0.77;;;;;;;;;;5050952;28;20276;-78
2022/10/06 09:10:07;;;;;;;0.93;0.93;;;;;;;;;;5050156;28;20316;-78
2022/10/06 09:12:37;;;;;;;0.97;0.97;;;;;;;;;;5050659;28;20665;-77
2022/10/06 09:15:12;;;;;;;3.70;1.13;;;;;;;;;;5049989;28;20209;-78
2022/10/06 09:17:42;;;;;;;1.00;0.93;;;;;;;;;;5050555;28;20201;-78
2022/10/06 09:20:14;;;;;;;4.17;1.50;;;;;;;;;;5050327;28;20201;-78
2022/10/06 09:22:41;;;;;;;2.10;1.20;;;;;;;;;;5050813;28;20284;-77
2022/10/06 09:25:16;;;;;;;0.83;0.83;;;;;;;;;;5050547;28;20259;-78
2022/10/06 09:27:44;;;;;;;0.90;0.90;;;;;;;;;;5050598;28;20225;-79
2022/10/06 09:30:12;;;;;;;1.07;1.00;;;;;;;;;;5050320;28;20310;-78
2022/10/06 09:32:41;;;;;;;1.00;1.00;;;;;;;;;;5050284;28;20633;-78
2022/10/06 09:35:18;;;;;;;1.33;1.30;;;;;;;;;;5050199;28;20206;-77
2022/10/06 09:37:56;;;;;;;3.10;1.40;;;;;;;;;;5050232;28;20666;-77
2022/10/06 09:40:35;;;;;;;1.70;1.60;;;;;;;;;;5049897;28;20635;-78
2022/10/06 09:43:03;;;;;;;1.63;1.53;;;;;;;;;;5050540;28;20296;-77
2022/10/06 09:45:30;;;;;;;2.00;1.60;;;;;;;;;;5050103;28;20583;-77
2022/10/06 09:48:12;;;;;;;1.97;1.87;;;;;;;;;;5050149;28;20210;-78
2022/10/06 09:50:39;;;;;;;1.90;1.73;;;;;;;;;;5053761;28;20221;-77
2022/10/06 09:53:15;;;;;;;2.00;1.40;;;;;;;;;;5054216;28;20204;-77
2022/10/06 09:55:51;;;;;;;5.10;1.70;;;;;;;;;;5054130;28;20197;-77
2022/10/06 09:58:23;;;;;;;2.10;1.90;;;;;;;;;;5053777;28;20209;-78
2022/10/06 10:00:53;;;;;;;4.00;2.43;;;;;;;;;;5053669;28;20229;-78
2022/10/06 10:03:21;;;;;;;1.83;1.57;;;;;;;;;;5053850;28;20711;-78
2022/10/06 10:05:49;;;;;;;5.00;2.10;;;;;;;;;;5054114;28;20292;-78
2022/10/06 10:08:21;;;;;;;1.57;1.30;;;;;;;;;;5053740;28;20198;-78
2022/10/06 10:10:50;;;;;;;1.60;1.50;;;;;;;;;;5053523;28;20312;-78
2022/10/06 10:13:19;;;;;;;6.00;1.53;;;;;;;;;;5053639;28;20205;-78
2022/10/06 10:15:53;;;;;;;2.13;1.40;;;;;;;;;;5039870;28;20643;-78
2022/10/06 10:18:25;;;;;;;3.20;1.50;;;;;;;;;;5053843;28;20212;-78
2022/10/06 10:20:54;;;;;;;2.70;1.70;;;;;;;;;;5039894;28;20234;-78
2022/10/06 10:23:24;;;;;;;1.50;1.40;;;;;;;;;;5053386;28;20639;-78
2022/10/06 10:26:11;;;;;;;1.63;1.53;;;;;;;;;;5053328;28;20613;-78
2022/10/06 10:29:30;;;;;;;1.40;1.30;;;;;;;;;;5053277;28;20264;-78
2022/10/06 10:32:08;;;;;;;2.40;1.43;;;;;;;;;;5046246;28;20653;-80
2022/10/06 10:34:59;;;;;;;1.37;1.30;;;;;;;;;;5053161;28;20212;-78
2022/10/06 10:37:31;;;;;;;1.07;1.00;;;;;;;;;;5053241;28;20206;-78
2022/10/06 10:40:00;;;;;;;2.87;1.10;;;;;;;;;;5052940;28;20210;-78
2022/10/06 10:42:31;;;;;;;1.60;1.50;;;;;;;;;;5052678;28;20205;-78
2022/10/06 10:45:00;;;;;;;1.10;1.00;;;;;;;;;;5053344;28;20707;-77
2022/10/06 10:47:30;;;;;;;3.27;1.20;;;;;;;;;;5053150;28;20202;-77
2022/10/06 10:50:01;;;;;;;1.43;1.27;;;;;;;;;;5052559;28;20217;-78
2022/10/06 10:52:31;;;;;;;1.40;1.30;;;;;;;;;;5053132;28;20688;-78
2022/10/06 10:55:05;;;;;;;2.53;1.37;;;;;;;;;;5052479;28;20206;-78
2022/10/06 10:57:37;;;;;;;4.33;1.90;;;;;;;;;;5052706;28;20702;-78
2022/10/06 11:00:07;;;;;;;1.90;1.70;;;;;;;;;;5052177;28;20213;-77
2022/10/06 11:02:34;;;;;;;3.13;1.67;;;;;;;;;;5052830;28;20646;-78
2022/10/06 11:05:03;;;;;;;1.57;1.43;;;;;;;;;;5052639;28;20286;-78
2022/10/06 11:07:34;;;;;;;2.13;1.93;;;;;;;;;;5052343;28;20209;-78
2022/10/06 11:10:05;;;;;;;2.50;1.60;;;;;;;;;;5052386;28;20229;-78
2022/10/06 11:12:45;;;;;;;1.40;1.30;;;;;;;;;;5052824;28;20727;-78
2022/10/06 11:15:19;;;;;;;3.90;1.20;;;;;;;;;;5052508;28;20198;-78
2022/10/06 11:17:49;;;;;;;1.77;1.30;;;;;;;;;;5052778;28;20198;-78
2022/10/06 11:20:33;;;;;;;2.17;1.50;;;;;;;;;;5052122;28;20209;-78
2022/10/06 11:23:08;;;;;;;3.37;1.63;;;;;;;;;;5052785;28;20588;-78
2022/10/06 11:25:40;;;;;;;2.03;1.37;;;;;;;;;;5052175;28;20210;-78
2022/10/06 11:28:16;;;;;;;2.27;2.10;;;;;;;;;;5052512;28;20233;-78
2022/10/06 11:30:55;;;;;;;4.73;1.53;;;;;;;;;;5051648;28;20613;-78
2022/10/06 11:33:28;;;;;;;2.90;1.70;;;;;;;;;;5052170;28;20204;-78
2022/10/06 11:35:54;;;;;;;2.40;1.47;;;;;;;;;;5052509;28;20622;-78
2022/10/06 11:38:25;;;;;;;4.63;1.63;;;;;;;;;;5052385;28;20210;-78
2022/10/06 11:41:08;;;;;;;1.60;1.50;;;;;;;;;;5051962;28;20640;-78
2022/10/06 11:43:41;;;;;;;7.03;1.60;;;;;;;;;;5051920;28;20684;-78
2022/10/06 11:46:22;;;;;;;2.17;1.43;;;;;;;;;;5051867;28;20197;-78
2022/10/06 11:48:49;;;;;;;1.80;1.47;;;;;;;;;;5052182;28;20288;-78
2022/10/06 11:51:30;;;;;;;1.77;1.67;;;;;;;;;;5051422;28;20234;-78
2022/10/06 11:53:57;;;;;;;1.33;1.23;;;;;;;;;;5051527;28;20289;-78
2022/10/06 11:56:39;;;;;;;1.43;1.33;;;;;;;;;;5051893;28;20371;-79
2022/10/06 11:59:27;;;;;;;2.40;1.40;;;;;;;;;;5050258;28;20206;-78
2022/10/06 12:01:56;;;;;;;1.17;1.17;;;;;;;;;;5049257;28;20639;-78
2022/10/06 12:04:25;;;;;;;1.40;1.30;;;;;;;;;;5051633;28;20197;-78
2022/10/06 12:06:54;;;;;;;1.20;1.20;;;;;;;;;;5051931;28;20279;-78
2022/10/06 12:09:46;;;;;;;3.30;1.43;;;;;;;;;;5051447;28;20216;-78
2022/10/06 12:12:55;;;;;;;1.30;1.20;;;;;;;;;;5050414;28;20574;-78
2022/10/06 12:15:39;;;;;;;1.30;1.17;;;;;;;;;;5051018;28;20252;-78
2022/10/06 12:18:15;;;;;;;1.37;1.33;;;;;;;;;;5051690;28;20212;-77
2022/10/06 12:20:52;;;;;;;1.23;1.20;;;;;;;;;;5050865;28;20209;-78
2022/10/06 12:23:28;;;;;;;3.60;1.60;;;;;;;;;;5051465;28;20229;-78
2022/10/06 12:25:58;;;;;;;2.87;2.30;;;;;;;;;;5051243;28;20211;-78
2022/10/06 12:28:33;;;;;;;3.47;1.23;;;;;;;;;;5051397;28;20233;-78
2022/10/06 12:31:11;;;;;;;1.40;1.30;;;;;;;;;;5050636;28;20320;-78
2022/10/06 12:33:39;;;;;;;1.70;1.60;;;;;;;;;;5050995;28;20289;-78
2022/10/06 12:36:17;;;;;;;1.40;1.30;;;;;;;;;;5050831;28;20252;-78
2022/10/06 12:39:01;;;;;;;2.60;1.30;;;;;;;;;;5051115;28;20206;-78
2022/10/06 12:41:59;;;;;;;5.40;1.40;;;;;;;;;;5038431;28;20626;-79
2022/10/06 12:44:29;;;;;;;3.90;1.10;;;;;;;;;;5050781;28;20198;-78
2022/10/06 12:47:00;;;;;;;2.87;1.30;;;;;;;;;;5050642;28;20588;-78
2022/10/06 12:49:42;;;;;;;3.13;1.93;;;;;;;;;;5050644;28;20594;-79
2022/10/06 12:52:30;;;;;;;1.50;1.40;;;;;;;;;;5038771;28;20225;-78
2022/10/06 12:55:07;;;;;;;2.27;1.50;;;;;;;;;;5050670;28;20213;-78
2022/10/06 12:57:45;;;;;;;1.37;1.27;;;;;;;;;;5050725;28;20255;-78
2022/10/06 13:00:30;;;;;;;0.93;0.93;;;;;;;;;;5050187;28;20209;-78
2022/10/06 13:02:59;;;;;;;1.40;1.30;;;;;;;;;;5050548;28;20198;-78
2022/10/06 13:05:26;;;;;;;4.90;1.30;;;;;;;;;;5050330;28;20576;-78
2022/10/06 13:07:57;;;;;;;1.03;1.03;;;;;;;;;;5051059;28;20625;-77
2022/10/06 13:10:25;;;;;;;1.40;1.30;;;;;;;;;;5050191;28;20225;-78
2022/10/06 13:12:54;;;;;;;1.30;1.20;;;;;;;;;;5050674;28;20208;-78
2022/10/06 13:15:23;;;;;;;3.03;2.07;;;;;;;;;;5050207;28;20213;-77
2022/10/06 13:17:52;;;;;;;1.93;1.70;;;;;;;;;;5050605;28;20240;-78
2022/10/06 13:20:35;;;;;;;1.20;1.20;;;;;;;;;;5050722;28;20201;-77
2022/10/06 13:23:04;;;;;;;1.40;1.30;;;;;;;;;;5049682;28;20628;-78
2022/10/06 13:25:41;;;;;;;4.57;2.83;;;;;;;;;;5050092;28;20668;-78
2022/10/06 13:28:20;;;;;;;1.40;1.30;;;;;;;;;;5050479;28;20320;-77
2022/10/06 13:30:50;;;;;;;1.33;1.23;;;;;;;;;;5050038;28;20317;-77
2022/10/06 13:33:17;;;;;;;1.50;1.40;;;;;;;;;;5050077;28;20197;-78
2022/10/06 13:35:46;;;;;;;1.47;1.37;;;;;;;;;;5050102;28;20636;-78
2022/10/06 13:38:12;;;;;;;2.03;1.77;;;;;;;;;;5050258;28;20292;-78
2022/10/06 13:40:39;;;;;;;2.50;1.17;;;;;;;;;;5050020;28;20214;-78
2022/10/06 13:43:06;;;;;;;1.27;1.10;;;;;;;;;;5050146;28;20210;-77
2022/10/06 13:45:33;;;;;;;4.07;1.20;;;;;;;;;;5050030;28;20194;-77
2022/10/06 13:48:04;;;;;;;0.97;0.97;;;;;;;;;;5050183;28;20703;-77
2022/10/06 13:50:31;;;;;;;7.47;1.87;;;;;;;;;;5049706;28;20202;-78
2022/10/06 13:53:00;;;;;;;1.30;1.23;;;;;;;;;;5049928;28;20194;-78
2022/10/06 13:55:30;;;;;;;1.73;1.20;;;;;;;;;;5050467;28;20571;-78
2022/10/06 13:58:08;;;;;;;1.83;1.17;;;;;;;;;;5050345;28;20206;-79
2022/10/06 14:00:48;;;;;;;2.00;1.13;;;;;;;;;;5049440;28;20673;-77
2022/10/06 14:03:27;;;;;;;3.70;1.30;;;;;;;;;;5049895;28;20241;-78
2022/10/06 14:06:06;;;;;;;1.30;1.20;;;;;;;;;;5050223;28;20214;-77
2022/10/06 14:08:36;;;;;;;1.13;1.13;;;;;;;;;;5049999;28;20205;-78
2022/10/06 14:11:04;;;;;;;2.53;1.50;;;;;;;;;;5049351;28;20815;-78
2022/10/06 14:13:38;;;;;;;1.57;1.20;;;;;;;;;;5050173;28;20201;-78
2022/10/06 14:16:06;;;;;;;3.87;1.20;;;;;;;;;;5049954;28;20205;-78
2022/10/06 14:18:37;;;;;;;1.97;1.40;;;;;;;;;;5049827;28;20221;-78
2022/10/06 14:21:17;;;;;;;1.67;1.00;;;;;;;;;;5050035;28;20213;-77
2022/10/06 14:23:49;;;;;;;2.20;1.40;;;;;;;;;;5049630;28;20202;-77
2022/10/06 14:26:18;;;;;;;1.67;1.10;;;;;;;;;;5049756;28;20238;-78
2022/10/06 14:28:47;;;;;;;1.00;0.90;;;;;;;;;;5049409;28;20237;-78
2022/10/06 14:31:14;;;;;;;0.90;0.90;;;;;;;;;;5049410;28;20687;-78
2022/10/06 14:33:40;;;;;;;1.00;1.00;;;;;;;;;;5049794;28;20206;-77
2022/10/06 14:36:14;;;;;;;0.90;0.90;;;;;;;;;;5051812;28;20647;-77
2022/10/06 14:38:41;;;;;;;1.00;1.00;;;;;;;;;;5053536;28;20201;-78
2022/10/06 14:41:09;;;;;;;0.80;0.80;;;;;;;;;;5052746;28;20202;-77
2022/10/06 14:43:39;;;;;;;1.23;1.13;;;;;;;;;;5053221;28;20652;-77
2022/10/06 14:46:09;;;;;;;1.17;1.10;;;;;;;;;;5053148;28;20208;-78
2022/10/06 14:48:36;;;;;;;0.80;0.80;;;;;;;;;;5039307;28;20261;-78
2022/10/06 14:51:03;;;;;;;1.40;1.30;;;;;;;;;;5053156;28;20233;-78
2022/10/06 14:53:30;;;;;;;0.90;0.90;;;;;;;;;;5052713;28;20205;-77
2022/10/06 14:56:01;;;;;;;1.03;1.00;;;;;;;;;;5053004;28;20703;-77
2022/10/06 14:58:29;;;;;;;1.20;1.10;;;;;;;;;;5052981;28;20683;-77
2022/10/06 15:01:03;;;;;;;2.07;1.00;;;;;;;;;;5052988;28;20206;-77
2022/10/06 15:03:30;;;;;;;1.07;0.90;;;;;;;;;;5052854;28;20198;-78
2022/10/06 15:08:49;;;;;;;1.00;1.00;;;;;;;;;;5052611;28;20703;-77
2022/10/06 15:11:16;;;;;;;0.97;0.83;;;;;;;;;;5052553;28;20722;-77
2022/10/06 15:13:44;;;;;;;1.30;1.20;;;;;;;;;;5052702;28;20206;-77
2022/10/06 15:16:11;;;;;;;0.93;0.93;;;;;;;;;;5052238;28;20599;-78
2022/10/06 15:18:39;;;;;;;1.17;1.00;;;;;;;;;;5052788;28;20198;-78
2022/10/06 15:21:06;;;;;;;1.00;1.00;;;;;;;;;;5052446;28;20206;-78
2022/10/06 15:23:33;;;;;;;2.50;1.07;;;;;;;;;;5052242;28;20205;-78